37M weather

Hornersville Memorial Airport
Hornersville, Missouri, United States

Public forecast

Using degrees Fahrenheit for public forecast. Weather courtesy of forecast.io.

Closest aviation weather report (METAR) to Hornersville Memorial Airport

Report is more than 6 hours old.

Closest report is Arkansas International Airport, 11.0 nm (20.4 km) ESE. Retrieved 2020/06/03 20:50 UTC (13 hours ago):

KBYH 032050Z 22010KT 10SM SCT060 BKN150 32/17 A2988 RMK LAST

Closest aviation forecast (TAF) to Hornersville Memorial Airport

Closest forecast is Jonesboro Municipal Airport, 27.2 nm (50.4 km) WSW. Retrieved 2020/06/04 06:22 UTC (4 hours ago):

TAF KJBR 040520Z 0406/0506 22006KT P6SM SCT100 FM041200 21005KT P6SM VCSH BKN030 BKN100 FM041500 23004KT P6SM -SHRA VCTS BKN030CB FM041800 22008KT P6SM VCSH SCT030 BKN100 FM050300 20004KT P6SM SCT030 BKN100 AMD NOT SKED